Lydia, LA (70569)

3:11 AM CST on December 22, 2014 (GMT -0600)
Belair | Change Station
CLOSE
Current Station
Personal Weather Station
Location: New Iberia, LA
Elevation: 18 ft
Nearby Weather Stations

Elev 18 ft 29.99 °N, 91.77 °W | Updated 0 second ago

Fog
Fog
53.4 °F
Feels Like 53.4 °F
N
0.0
Wind Variable Wind from SE
Gusts 0.0 mph

Today
High -- | Low -- °F
--% Chance of Precip.
Yesterday
High -- | Low -- °F
Precip. -- in
6:59 AM 5:12 PM
New Moon, 0% visible
Pressure 29.88 in
Visibility 1.0 miles
Clouds Overcast 400 ft
Dew Point 48 °F
Humidity 81%
Rainfall 0.00 in
Snow Depth Not available.
UV 0 out of 12
Pollen 3.90 out of 12
Air Quality Not available.
Flu Activity Not available.
METAR KARA 220853Z AUTO 08003KT 1SM BR OVC004 12/11 A2988 RMK AO2 SLP118 T01170111 56018

More Conditions Fewer Conditions

Pressure 29.88 in
Visibility 1.0 miles
Clouds Overcast 400 ft
Dew Point 48 °F
Humidity 81%
Rainfall 0.00 in
Snow Depth Not available.
UV 0 out of 12
Pollen 3.90 out of 12
Air Quality Not available.
Flu Activity Not available.
METAR KARA 220853Z AUTO 08003KT 1SM BR OVC004 12/11 A2988 RMK AO2 SLP118 T01170111 56018

More Conditions Fewer Conditions

10-Day Weather Forecast

Almanac

Astronomy

Dec. 22, 2014 Rise Set
Actual Time
Civil Twilight
Nautical Twilight
Astronomical Twilight
Moon
Length of Visible Light
Length of Day
Tomorrow will be .
, % of the Moon is Illuminated

Today's Extremes

State Highs State Lows

Community

WunderPhotos

Upload Photos

1,779,580 photos uploaded!

WunderBlogs® & News

Nearby

Air Quality

  Air Quality AQ Index Pollutant
Not available.

Snow Depth

Station Depth Elevation

Earthquake Activity

City Distance Mag. Time & Date
Minimum magnitude displayed is 2.5.

Coastal Water Temperatures

Place Temperature

Nearby Weather Stations